createdAt,value
2023-04-14T00:00:36.169Z,1.27
2023-04-14T00:03:03.083Z,1.23
2023-04-14T00:05:33.743Z,1.15
2023-04-14T00:08:00.711Z,1.00
2023-04-14T00:10:27.852Z,1.10
2023-04-14T00:12:55.354Z,1.02
2023-04-14T00:15:22.059Z,1.15
2023-04-14T00:17:48.564Z,1.23
2023-04-14T00:20:15.449Z,0.82
2023-04-14T00:22:41.999Z,1.50
2023-04-14T00:25:08.718Z,1.23
2023-04-14T00:27:35.317Z,1.30
2023-04-14T00:30:01.901Z,0.98
2023-04-14T00:32:28.477Z,1.33
2023-04-14T00:34:56.889Z,1.65
2023-04-14T00:37:24.107Z,1.50
2023-04-14T00:39:50.756Z,1.27
2023-04-14T00:42:17.343Z,1.42
2023-04-14T00:44:43.805Z,1.65
2023-04-14T00:47:10.951Z,1.73
2023-04-14T00:49:37.665Z,1.17
2023-04-14T00:52:04.977Z,2.25
2023-04-14T00:54:34.373Z,1.38
2023-04-14T00:57:02.120Z,1.75
2023-04-14T00:59:29.698Z,1.67
2023-04-14T01:01:56.823Z,1.65
2023-04-14T01:04:23.497Z,1.45
2023-04-14T01:06:50.412Z,1.83
2023-04-14T01:09:16.889Z,1.45
2023-04-14T01:12:02.646Z,2.22
2023-04-14T01:14:54.007Z,1.52
2023-04-14T01:17:42.365Z,1.20
2023-04-14T01:20:27.249Z,1.67
2023-04-14T01:22:58.987Z,1.42
2023-04-14T01:25:57.662Z,1.65
2023-04-14T01:28:46.156Z,1.48
2023-04-14T01:31:22.359Z,1.65
2023-04-14T01:33:56.485Z,1.27
2023-04-14T01:36:31.713Z,1.20
2023-04-14T01:38:59.087Z,1.40
2023-04-14T01:41:28.479Z,1.05
2023-04-14T01:43:56.023Z,1.48
2023-04-14T01:46:22.523Z,1.27
2023-04-14T01:48:50.306Z,1.40
2023-04-14T01:51:20.143Z,1.98
2023-04-14T01:53:49.622Z,1.63
2023-04-14T01:56:17.818Z,1.77
2023-04-14T01:58:46.612Z,2.38
2023-04-14T02:01:13.722Z,1.52
2023-04-14T02:03:41.094Z,2.20
2023-04-14T02:06:10.612Z,2.03
2023-04-14T02:08:41.147Z,1.15
2023-04-14T02:11:09.830Z,1.20
2023-04-14T02:13:40.492Z,1.67
2023-04-14T02:16:10.596Z,1.55
2023-04-14T02:18:39.140Z,1.67
2023-04-14T02:21:06.322Z,1.70
2023-04-14T02:23:33.486Z,1.65
2023-04-14T02:26:09.918Z,2.05
2023-04-14T02:28:41.888Z,1.80
2023-04-14T02:31:12.787Z,1.63
2023-04-14T02:33:40.287Z,2.03
2023-04-14T02:36:32.474Z,1.83
2023-04-14T02:39:06.612Z,1.58
2023-04-14T02:41:33.763Z,1.80
2023-04-14T02:44:21.292Z,1.50
2023-04-14T02:47:09.595Z,2.08
2023-04-14T02:49:47.705Z,2.05
2023-04-14T02:52:17.500Z,1.80
2023-04-14T02:54:44.536Z,1.95
2023-04-14T02:57:11.286Z,1.60
2023-04-14T02:59:38.834Z,1.80
2023-04-14T03:02:06.350Z,2.40
2023-04-14T03:04:35.259Z,2.67
2023-04-14T03:07:03.176Z,1.75
2023-04-14T03:09:31.938Z,2.15
2023-04-14T03:12:00.424Z,2.15
2023-04-14T03:14:27.887Z,2.50
2023-04-14T03:16:55.621Z,2.60
2023-04-14T03:19:23.818Z,2.45
2023-04-14T03:21:50.933Z,2.47
2023-04-14T03:24:24.306Z,1.55
2023-04-14T03:26:58.079Z,2.80
2023-04-14T03:29:27.372Z,2.20
2023-04-14T03:31:57.825Z,2.53
2023-04-14T03:34:29.710Z,1.95
2023-04-14T03:36:58.362Z,2.00
2023-04-14T03:39:34.491Z,3.38
2023-04-14T03:42:02.213Z,2.78
2023-04-14T03:44:32.860Z,2.67
2023-04-14T03:47:02.191Z,3.05
2023-04-14T03:49:33.110Z,2.28
2023-04-14T03:52:05.157Z,2.15
2023-04-14T03:54:33.735Z,2.35
2023-04-14T03:57:04.648Z,2.70
2023-04-14T03:59:32.711Z,5.85
2023-04-14T04:02:00.398Z,3.65
2023-04-14T04:04:27.546Z,4.10
2023-04-14T04:06:54.234Z,2.70
2023-04-14T04:09:24.452Z,2.40
2023-04-14T04:11:52.573Z,2.42
2023-04-14T04:14:21.142Z,1.98
2023-04-14T04:16:49.770Z,1.73
2023-04-14T04:19:20.421Z,1.90
2023-04-14T04:21:49.290Z,2.65
2023-04-14T04:24:18.161Z,1.85
2023-04-14T04:26:44.561Z,2.15
2023-04-14T04:29:11.902Z,2.15
2023-04-14T04:31:39.928Z,3.17
2023-04-14T04:34:07.761Z,2.05
2023-04-14T04:36:35.949Z,2.10
2023-04-14T04:39:03.253Z,2.83
2023-04-14T04:41:30.620Z,2.35
2023-04-14T04:43:57.195Z,2.30
2023-04-14T04:46:48.370Z,2.30
2023-04-14T04:49:15.674Z,3.13
2023-04-14T04:51:44.542Z,2.67
2023-04-14T04:54:11.137Z,3.13
2023-04-14T04:56:38.549Z,2.88
2023-04-14T04:59:05.051Z,2.42
2023-04-14T05:01:31.486Z,2.97
2023-04-14T05:03:58.046Z,2.58
2023-04-14T05:06:24.780Z,3.13
2023-04-14T05:08:53.101Z,3.05
2023-04-14T05:11:20.086Z,3.47
2023-04-14T05:13:46.859Z,3.20
2023-04-14T05:16:14.024Z,3.20
2023-04-14T05:18:42.233Z,3.38
2023-04-14T05:21:13.366Z,4.18
2023-04-14T05:23:42.470Z,3.38
2023-04-14T05:26:31.320Z,3.78
2023-04-14T05:28:57.049Z,4.13
2023-04-14T05:31:23.820Z,4.60
2023-04-14T05:33:50.297Z,3.95
2023-04-14T05:36:17.463Z,4.10
2023-04-14T05:38:44.632Z,4.53
2023-04-14T05:41:12.102Z,3.80
2023-04-14T05:43:38.766Z,3.80
2023-04-14T05:46:05.780Z,3.50
2023-04-14T05:48:33.618Z,4.13
2023-04-14T05:51:00.279Z,3.88
2023-04-14T05:53:27.805Z,3.85
2023-04-14T05:55:54.468Z,4.30
2023-04-14T05:58:21.631Z,3.67
2023-04-14T06:00:48.711Z,3.60
2023-04-14T06:03:16.743Z,4.28
2023-04-14T06:05:43.775Z,5.00
2023-04-14T06:08:10.448Z,6.30
2023-04-14T06:10:37.138Z,8.52
2023-04-14T06:13:03.676Z,7.20
2023-04-14T06:15:31.177Z,5.40
2023-04-14T06:17:57.856Z,6.15
2023-04-14T06:20:24.659Z,6.03
2023-04-14T06:22:51.410Z,5.53
2023-04-14T06:25:18.149Z,3.88
2023-04-14T06:27:44.677Z,5.00
2023-04-14T06:30:11.817Z,4.05
2023-04-14T06:32:38.317Z,3.80
2023-04-14T06:35:32.433Z,4.20
2023-04-14T06:37:59.875Z,3.55
2023-04-14T06:40:27.129Z,4.57
2023-04-14T06:42:53.625Z,3.15
2023-04-14T06:45:20.353Z,4.25
2023-04-14T06:47:47.178Z,3.13
2023-04-14T06:50:14.424Z,3.08
2023-04-14T06:52:40.941Z,4.38
2023-04-14T06:55:07.679Z,3.85
2023-04-14T06:57:34.126Z,4.90
2023-04-14T07:00:00.578Z,4.65
2023-04-14T07:02:28.816Z,3.97
2023-04-14T07:04:55.431Z,3.30
2023-04-14T07:07:21.875Z,3.92
2023-04-14T07:09:48.380Z,4.05
2023-04-14T07:12:17.844Z,3.47
2023-04-14T07:14:51.010Z,4.07
2023-04-14T07:17:18.749Z,4.32
2023-04-14T07:19:46.172Z,5.60
2023-04-14T07:22:12.872Z,4.93
2023-04-14T07:24:41.435Z,4.65
2023-04-14T07:27:14.993Z,4.28
2023-04-14T07:29:42.107Z,4.07
2023-04-14T07:32:08.617Z,3.92
2023-04-14T07:34:35.546Z,4.57
2023-04-14T07:37:02.050Z,4.13
2023-04-14T07:39:28.465Z,4.68
2023-04-14T07:41:57.682Z,4.53
2023-04-14T07:44:24.385Z,4.65
2023-04-14T07:46:51.246Z,4.90
2023-04-14T07:49:23.604Z,3.70
2023-04-14T07:51:51.189Z,4.47
2023-04-14T07:54:17.700Z,4.13
2023-04-14T07:56:44.106Z,4.13
2023-04-14T07:59:10.695Z,3.92
2023-04-14T08:01:37.616Z,4.00
2023-04-14T08:04:04.469Z,3.95
2023-04-14T08:06:31.174Z,4.20
2023-04-14T08:08:57.914Z,4.18
2023-04-14T08:11:25.222Z,3.55
2023-04-14T08:13:52.855Z,4.68
2023-04-14T08:16:19.790Z,4.68
2023-04-14T08:18:46.266Z,4.80
2023-04-14T08:21:12.756Z,4.70
2023-04-14T08:23:39.239Z,4.43
2023-04-14T08:26:05.720Z,5.50
2023-04-14T08:28:32.158Z,4.30
2023-04-14T08:30:58.631Z,4.35
2023-04-14T08:33:25.264Z,4.32
2023-04-14T08:35:59.506Z,4.82
2023-04-14T08:38:27.236Z,4.80
2023-04-14T08:40:56.094Z,4.38
2023-04-14T08:43:22.691Z,4.25
2023-04-14T08:45:51.551Z,4.80
2023-04-14T08:48:19.948Z,4.47
2023-04-14T08:50:59.221Z,5.00
2023-04-14T08:53:27.612Z,4.03
2023-04-14T08:55:57.966Z,5.05
2023-04-14T08:58:25.254Z,3.75
2023-04-14T09:00:53.450Z,4.28
2023-04-14T09:03:21.229Z,3.85
2023-04-14T09:05:47.865Z,4.00
2023-04-14T09:08:16.534Z,3.67
2023-04-14T09:10:43.216Z,4.30
2023-04-14T09:13:12.584Z,4.40
2023-04-14T09:15:39.086Z,3.63
2023-04-14T09:18:05.682Z,3.78
2023-04-14T09:20:36.314Z,3.80
2023-04-14T09:23:08.203Z,4.95
2023-04-14T09:25:34.737Z,4.53
2023-04-14T09:28:01.262Z,4.78
2023-04-14T09:30:28.784Z,3.58
2023-04-14T09:32:55.664Z,5.60
2023-04-14T09:35:22.729Z,3.75
2023-04-14T09:37:49.624Z,4.00
2023-04-14T09:40:30.211Z,3.63
2023-04-14T09:42:57.362Z,3.38
2023-04-14T09:45:41.625Z,3.67
2023-04-14T09:48:10.737Z,3.80
2023-04-14T09:51:03.459Z,4.18
2023-04-14T09:53:31.823Z,4.28
2023-04-14T09:56:00.039Z,4.30
2023-04-14T09:58:31.129Z,3.70
2023-04-14T10:00:59.362Z,3.25
2023-04-14T10:03:34.657Z,4.32
2023-04-14T10:06:04.580Z,3.70
2023-04-14T10:08:38.217Z,4.15
2023-04-14T10:11:35.523Z,3.75
2023-04-14T10:14:04.705Z,3.10
2023-04-14T10:16:31.847Z,4.38
2023-04-14T10:18:58.883Z,4.10
2023-04-14T10:21:27.806Z,4.80
2023-04-14T10:23:56.760Z,4.53
2023-04-14T10:26:23.234Z,3.80
2023-04-14T10:28:51.584Z,3.80
2023-04-14T10:31:23.723Z,3.85
2023-04-14T10:33:50.332Z,2.88
2023-04-14T10:36:29.183Z,2.97
2023-04-14T10:39:03.608Z,3.58
2023-04-14T10:41:49.546Z,3.70
2023-04-14T10:44:33.030Z,3.72
2023-04-14T10:47:02.093Z,3.55
2023-04-14T10:49:36.907Z,4.18
2023-04-14T10:52:26.309Z,3.35
2023-04-14T10:55:00.825Z,4.82
2023-04-14T10:57:30.316Z,3.55
2023-04-14T11:00:00.584Z,3.58
2023-04-14T11:02:34.697Z,4.00
2023-04-14T11:05:08.818Z,4.32
2023-04-14T11:07:44.623Z,5.35
2023-04-14T11:10:17.166Z,3.78
2023-04-14T11:12:44.866Z,3.70
2023-04-14T11:15:11.700Z,4.30
2023-04-14T11:17:43.213Z,3.88
2023-04-14T11:20:23.556Z,4.70
2023-04-14T11:22:52.662Z,3.88
2023-04-14T11:25:24.134Z,3.75
2023-04-14T11:27:51.745Z,4.55
2023-04-14T11:30:19.691Z,2.92
2023-04-14T11:32:51.366Z,3.65
2023-04-14T11:35:19.613Z,3.10
2023-04-14T11:37:46.979Z,2.13
2023-04-14T11:40:15.593Z,2.97
2023-04-14T11:42:47.088Z,3.42
2023-04-14T11:45:17.731Z,2.30
2023-04-14T11:48:00.204Z,2.90
2023-04-14T11:50:30.143Z,3.42
2023-04-14T11:52:59.516Z,2.67
2023-04-14T11:55:29.897Z,2.47
2023-04-14T11:57:57.228Z,2.70
2023-04-14T12:00:24.519Z,2.83
2023-04-14T12:02:51.637Z,3.33
2023-04-14T12:05:23.560Z,2.35
2023-04-14T12:07:50.377Z,1.70
2023-04-14T12:10:17.816Z,1.52
2023-04-14T12:12:44.267Z,1.58
2023-04-14T12:15:11.720Z,1.33
2023-04-14T12:17:39.532Z,1.77
2023-04-14T12:20:06.712Z,1.00
2023-04-14T12:22:33.174Z,1.20
2023-04-14T12:24:59.852Z,1.00
2023-04-14T12:27:27.532Z,0.80
2023-04-14T12:29:54.045Z,0.57
2023-04-14T12:32:22.282Z,0.60
2023-04-14T12:34:57.705Z,0.32
2023-04-14T12:37:26.628Z,0.22
2023-04-14T12:40:01.230Z,0.52
2023-04-14T12:42:29.601Z,0.45
2023-04-14T12:44:57.922Z,0.40
2023-04-14T12:47:34.517Z,0.50
2023-04-14T12:50:21.627Z,0.30
2023-04-14T12:52:48.071Z,0.40
2023-04-14T12:55:25.459Z,0.40
2023-04-14T12:57:55.744Z,0.82
2023-04-14T13:00:23.435Z,0.70
2023-04-14T13:02:51.244Z,0.60
2023-04-14T13:05:18.146Z,1.25
2023-04-14T13:07:44.626Z,0.65
2023-04-14T13:10:11.440Z,0.70
2023-04-14T13:12:38.548Z,0.30
2023-04-14T13:15:05.864Z,0.43
2023-04-14T13:17:32.577Z,0.20
2023-04-14T13:19:59.068Z,0.20
2023-04-14T13:22:25.582Z,0.20
2023-04-14T13:24:52.049Z,0.30
2023-04-14T13:27:19.091Z,0.60
2023-04-14T13:29:46.092Z,0.28
2023-04-14T13:32:12.767Z,0.40
2023-04-14T13:34:40.090Z,0.90
2023-04-14T13:37:06.511Z,0.30
2023-04-14T13:39:33.159Z,0.15
2023-04-14T13:41:59.594Z,0.60
2023-04-14T13:44:26.064Z,0.22
2023-04-14T13:46:53.127Z,0.30
2023-04-14T13:49:19.835Z,0.20
2023-04-14T13:51:46.441Z,0.30
2023-04-14T13:54:12.964Z,0.10
2023-04-14T13:56:39.444Z,0.30
2023-04-14T13:59:06.073Z,0.20
2023-04-14T14:01:32.583Z,0.68
2023-04-14T14:03:59.540Z,0.20
2023-04-14T14:06:26.494Z,0.20
2023-04-14T14:09:05.572Z,0.30
2023-04-14T14:11:33.170Z,0.22
2023-04-14T14:13:59.941Z,0.15
2023-04-14T14:18:56.591Z,0.10
2023-04-14T14:21:23.040Z,0.20
2023-04-14T14:23:49.641Z,0.20
2023-04-14T14:26:16.098Z,0.10
2023-04-14T14:28:42.766Z,0.17
2023-04-14T14:31:09.378Z,0.45
2023-04-14T14:33:35.820Z,0.20
2023-04-14T14:36:05.856Z,0.30
2023-04-14T14:38:32.636Z,0.35
2023-04-14T14:40:59.111Z,0.50
2023-04-14T14:43:25.579Z,0.38
2023-04-14T14:45:52.026Z,0.50
2023-04-14T14:48:18.528Z,0.40
2023-04-14T14:50:45.074Z,0.32
2023-04-14T14:53:11.548Z,0.10
2023-04-14T14:55:37.977Z,0.70
2023-04-14T14:58:06.262Z,0.30
2023-04-14T15:00:32.758Z,0.30
2023-04-14T15:02:59.400Z,0.85
2023-04-14T15:05:26.081Z,0.35
2023-04-14T15:07:52.622Z,0.75
2023-04-14T15:10:19.083Z,0.32
2023-04-14T15:12:45.494Z,0.50
2023-04-14T15:15:12.048Z,0.77
2023-04-14T15:17:38.788Z,0.40
2023-04-14T15:20:06.358Z,0.20
2023-04-14T15:22:32.941Z,0.32
2023-04-14T15:24:59.398Z,0.73
2023-04-14T15:27:25.902Z,0.55
2023-04-14T15:29:52.397Z,0.22
2023-04-14T15:32:24.997Z,0.40
2023-04-14T15:34:53.901Z,0.50
2023-04-14T15:37:21.986Z,0.40
2023-04-14T15:39:51.324Z,0.35
2023-04-14T15:42:18.915Z,0.52
2023-04-14T15:44:45.404Z,0.93
2023-04-14T15:47:12.071Z,0.30
2023-04-14T15:49:38.471Z,0.20
2023-04-14T15:52:05.951Z,0.40
2023-04-14T15:54:33.596Z,0.60
2023-04-14T15:57:00.026Z,0.20
2023-04-14T15:59:28.723Z,0.40
2023-04-14T16:01:56.097Z,0.40
2023-04-14T16:04:23.264Z,0.80
2023-04-14T16:06:49.889Z,0.55
2023-04-14T16:09:16.302Z,0.40
2023-04-14T16:11:42.726Z,0.57
2023-04-14T16:14:09.184Z,0.30
2023-04-14T16:16:36.358Z,0.40
2023-04-14T16:19:02.975Z,1.25
2023-04-14T16:21:29.671Z,1.17
2023-04-14T16:23:56.314Z,0.40
2023-04-14T16:26:23.789Z,0.40
2023-04-14T16:28:50.233Z,0.77
2023-04-14T16:31:17.724Z,0.20
2023-04-14T16:33:44.318Z,0.47
2023-04-14T16:36:11.182Z,0.30
2023-04-14T16:38:37.596Z,0.30
2023-04-14T16:41:04.306Z,0.20
2023-04-14T16:43:31.039Z,0.60
2023-04-14T16:46:04.488Z,0.32
2023-04-14T16:48:32.363Z,0.22
2023-04-14T16:51:06.209Z,0.80
2023-04-14T16:53:32.676Z,0.47
2023-04-14T16:56:09.423Z,0.25
2023-04-14T16:58:37.918Z,0.68
2023-04-14T17:01:06.038Z,0.45
2023-04-14T17:03:32.870Z,1.17
2023-04-14T17:05:59.551Z,0.28
2023-04-14T17:08:26.541Z,0.40
2023-04-14T17:10:53.185Z,0.60
2023-04-14T17:13:19.852Z,0.32
2023-04-14T17:15:49.455Z,0.40
2023-04-14T17:18:20.064Z,0.30
2023-04-14T17:20:46.664Z,0.40
2023-04-14T17:23:13.975Z,0.50
2023-04-14T17:25:41.290Z,0.40
2023-04-14T17:28:07.712Z,0.95
2023-04-14T17:30:36.014Z,0.20
2023-04-14T17:33:06.914Z,0.40
2023-04-14T17:35:34.576Z,0.40
2023-04-14T17:38:01.216Z,0.63
2023-04-14T17:40:28.255Z,1.00
2023-04-14T17:42:55.201Z,1.33
2023-04-14T17:45:25.439Z,1.77
2023-04-14T17:47:53.559Z,1.73
2023-04-14T17:50:21.659Z,2.45
2023-04-14T17:52:49.802Z,2.47
2023-04-14T17:55:16.505Z,1.92
2023-04-14T17:57:43.327Z,1.30
2023-04-14T18:00:10.988Z,1.83
2023-04-14T18:02:39.269Z,1.25
2023-04-14T18:05:06.911Z,1.58
2023-04-14T18:07:33.523Z,1.42
2023-04-14T18:09:59.987Z,1.33
2023-04-14T18:12:26.476Z,1.00
2023-04-14T18:14:53.244Z,1.25
2023-04-14T18:17:20.367Z,1.33
2023-04-14T18:19:46.894Z,1.05
2023-04-14T18:22:13.389Z,3.38
2023-04-14T18:29:38.403Z,8.25
2023-04-14T18:32:04.855Z,2.38
2023-04-14T18:34:31.319Z,1.42
2023-04-14T18:36:57.762Z,0.95
2023-04-14T18:39:25.024Z,1.30
2023-04-14T18:41:51.452Z,1.10
2023-04-14T18:44:18.245Z,1.63
2023-04-14T18:46:44.814Z,2.63
2023-04-14T18:49:11.633Z,3.35
2023-04-14T18:51:38.084Z,3.53
2023-04-14T18:54:04.652Z,8.82
2023-04-14T18:56:31.530Z,4.25
2023-04-14T18:58:57.932Z,3.00
2023-04-14T19:01:24.529Z,1.48
2023-04-14T19:03:51.013Z,1.05
2023-04-14T19:06:17.466Z,1.60
2023-04-14T19:08:43.903Z,1.00
2023-04-14T19:11:11.822Z,0.90
2023-04-14T19:13:38.677Z,1.20
2023-04-14T19:16:08.362Z,1.30
2023-04-14T19:18:35.452Z,0.93
2023-04-14T19:21:02.685Z,0.77
2023-04-14T19:23:30.104Z,1.50
2023-04-14T19:25:57.512Z,1.15
2023-04-14T19:28:24.593Z,0.80
2023-04-14T19:30:51.023Z,0.50
2023-04-14T19:33:17.583Z,0.68
2023-04-14T19:35:44.789Z,0.45
2023-04-14T19:38:11.756Z,0.50
2023-04-14T19:40:38.334Z,0.85
2023-04-14T19:43:04.770Z,0.52
2023-04-14T19:45:31.176Z,0.55
2023-04-14T19:47:57.797Z,0.95
2023-04-14T19:50:24.230Z,1.42
2023-04-14T19:52:52.047Z,0.70
2023-04-14T19:55:18.921Z,0.65
2023-04-14T19:57:45.666Z,0.80
2023-04-14T20:00:12.701Z,1.05
2023-04-14T20:02:40.566Z,1.83
2023-04-14T20:05:07.370Z,2.03
2023-04-14T20:07:33.802Z,2.10
2023-04-14T20:10:01.353Z,2.92
2023-04-14T20:12:28.423Z,3.17
2023-04-14T20:14:54.851Z,2.35
2023-04-14T20:17:22.582Z,2.72
2023-04-14T20:19:50.485Z,2.58
2023-04-14T20:22:17.039Z,2.33
2023-04-14T20:24:43.967Z,1.88
2023-04-14T20:27:10.950Z,2.45
2023-04-14T20:29:37.365Z,2.58
2023-04-14T20:32:04.205Z,1.98
2023-04-14T20:34:30.604Z,1.75
2023-04-14T20:36:56.987Z,1.67
2023-04-14T20:39:23.572Z,1.50
2023-04-14T20:41:50.893Z,5.07
2023-04-14T20:44:17.399Z,2.53
2023-04-14T20:46:43.865Z,1.80
2023-04-14T20:49:11.097Z,2.58
2023-04-14T20:51:37.818Z,2.97
2023-04-14T20:54:04.301Z,2.10
2023-04-14T20:56:31.854Z,2.33
2023-04-14T20:58:58.782Z,2.17
2023-04-14T21:01:27.622Z,2.20
2023-04-14T21:03:54.851Z,2.40
2023-04-14T21:06:21.958Z,2.63
2023-04-14T21:08:48.430Z,3.13
2023-04-14T21:11:18.227Z,2.90
2023-04-14T21:15:25.533Z,1.98
2023-04-14T21:16:34.973Z,2.10
2023-04-14T21:19:03.619Z,1.92
2023-04-14T21:21:30.398Z,1.90
2023-04-14T21:23:56.782Z,2.42
2023-04-14T21:26:23.784Z,2.33
2023-04-14T21:28:50.749Z,2.15
2023-04-14T21:31:17.442Z,2.50
2023-04-14T21:33:44.016Z,2.20
2023-04-14T21:36:10.724Z,2.33
2023-04-14T21:38:38.585Z,2.72
2023-04-14T21:41:05.783Z,2.65
2023-04-14T21:43:32.356Z,3.13
2023-04-14T21:45:58.803Z,3.65
2023-04-14T21:48:25.389Z,3.28
2023-04-14T21:50:51.913Z,3.85
2023-04-14T21:53:19.262Z,4.32
2023-04-14T21:55:46.270Z,4.00
2023-04-14T21:58:13.003Z,3.53
2023-04-14T22:00:41.019Z,4.80
2023-04-14T22:03:07.954Z,4.88
2023-04-14T22:05:34.480Z,4.85
2023-04-14T22:08:00.937Z,4.60
2023-04-14T22:10:31.894Z,3.80
2023-04-14T22:12:59.679Z,5.15
2023-04-14T22:15:27.394Z,4.13
2023-04-14T22:17:53.843Z,5.05
2023-04-14T22:20:20.436Z,3.92
2023-04-14T22:22:46.855Z,4.63
2023-04-14T22:25:13.248Z,5.07
2023-04-14T22:27:39.685Z,5.30
2023-04-14T22:30:06.707Z,24.77
2023-04-14T22:32:33.138Z,37.08
2023-04-14T22:34:59.645Z,12.23
2023-04-14T22:37:26.581Z,7.80
2023-04-14T22:39:53.023Z,6.15
2023-04-14T22:42:19.404Z,9.75
2023-04-14T22:44:47.983Z,6.53
2023-04-14T22:47:14.567Z,5.32
2023-04-14T22:49:41.132Z,5.43
2023-04-14T22:52:07.543Z,6.00
2023-04-14T22:54:33.964Z,5.68
2023-04-14T22:57:00.396Z,4.70
2023-04-14T22:59:27.048Z,5.03
2023-04-14T23:01:53.583Z,5.95
2023-04-14T23:04:20.260Z,5.47
2023-04-14T23:06:47.309Z,5.50
2023-04-14T23:09:13.709Z,6.30
2023-04-14T23:11:40.097Z,6.18
2023-04-14T23:14:06.560Z,5.80
2023-04-14T23:16:33.014Z,6.35
2023-04-14T23:18:59.637Z,6.30
2023-04-14T23:21:26.296Z,6.63
2023-04-14T23:23:52.778Z,5.63
2023-04-14T23:26:21.135Z,6.55
2023-04-14T23:28:47.598Z,6.57
2023-04-14T23:31:14.166Z,6.25
2023-04-14T23:33:40.872Z,6.60
2023-04-14T23:36:07.692Z,6.15
2023-04-14T23:38:34.337Z,6.40
2023-04-14T23:41:01.361Z,6.07
2023-04-14T23:43:28.990Z,6.38
2023-04-14T23:45:56.099Z,6.43
2023-04-14T23:48:22.698Z,5.80
2023-04-14T23:51:00.876Z,6.40
2023-04-14T23:53:36.078Z,6.30
2023-04-14T23:56:03.927Z,6.63
2023-04-14T23:58:30.704Z,6.63
